Time;durP1;ratioP1;P1;durP2;ratioP2;P2;SDS_P1;SDS_P2;PMS_P1;PMS_P2;Temp;Humidity;BMP_temperature;BMP_pressure;BME280_temperature;BME280_humidity;BME280_pressure;Samples;Min_cycle;Max_cycle;Signal;HPM_P1;HPM_P2
2024/02/13 00:01:00;;;;;;;0.50;0.10;;;23.10;55.20;;;;;;5065883;28;20320;-36
2024/02/13 00:03:26;;;;;;;0.45;0.10;;;23.10;55.30;;;;;;5070072;28;20064;-37
2024/02/13 00:05:52;;;;;;;2.30;0.20;;;23.10;55.20;;;;;;5057459;28;20049;-37
2024/02/13 00:08:18;;;;;;;0.85;0.10;;;23.10;55.20;;;;;;5049300;28;20045;-37
2024/02/13 00:10:45;;;;;;;0.43;0.10;;;23.10;55.40;;;;;;5051625;28;20039;-37
2024/02/13 00:13:11;;;;;;;0.43;0.10;;;23.10;55.30;;;;;;5045218;28;20025;-36
2024/02/13 00:15:38;;;;;;;0.75;0.10;;;23.10;55.30;;;;;;5046335;28;20044;-36
2024/02/13 00:18:05;;;;;;;0.40;0.10;;;23.10;55.30;;;;;;5046599;28;20037;-36
2024/02/13 00:20:32;;;;;;;0.40;0.10;;;23.10;55.30;;;;;;5047047;28;20060;-36
2024/02/13 00:23:00;;;;;;;1.38;0.35;;;23.10;55.30;;;;;;5049626;28;20033;-35
2024/02/13 00:25:28;;;;;;;0.60;0.10;;;23.10;55.60;;;;;;5042205;28;20593;-35
2024/02/13 00:27:55;;;;;;;0.82;0.20;;;23.10;55.40;;;;;;5040079;28;20039;-37
2024/02/13 00:30:21;;;;;;;1.42;0.20;;;23.10;55.50;;;;;;5041509;28;20072;-37
2024/02/13 00:32:47;;;;;;;0.55;0.10;;;23.10;55.80;;;;;;5039713;28;20044;-35
2024/02/13 00:35:13;;;;;;;1.65;0.20;;;23.10;55.70;;;;;;5021402;28;20091;-40
2024/02/13 00:37:39;;;;;;;0.52;0.10;;;23.10;55.40;;;;;;5039711;28;20029;-36
2024/02/13 00:40:09;;;;;;;1.45;0.20;;;23.10;55.30;;;;;;5037818;28;20045;-35
2024/02/13 00:42:38;;;;;;;0.20;0.10;;;23.10;55.30;;;;;;5039541;28;20040;-35
2024/02/13 00:45:07;;;;;;;0.55;0.10;;;23.10;55.30;;;;;;5026292;28;20037;-36
2024/02/13 00:47:36;;;;;;;0.32;0.20;;;23.10;55.40;;;;;;5044678;28;20029;-36
2024/02/13 00:50:02;;;;;;;0.65;0.20;;;23.10;55.50;;;;;;5048282;28;20047;-36
2024/02/13 00:52:29;;;;;;;0.10;0.10;;;23.10;55.70;;;;;;5044886;28;20116;-35
2024/02/13 00:54:56;;;;;;;0.55;0.17;;;23.10;55.80;;;;;;5049950;28;20033;-36
2024/02/13 00:57:22;;;;;;;2.17;0.10;;;23.10;55.60;;;;;;5055792;28;20035;-35
2024/02/13 00:59:48;;;;;;;0.45;0.20;;;23.00;55.60;;;;;;5059482;28;20061;-35
2024/02/13 01:02:17;;;;;;;1.40;0.10;;;23.00;55.50;;;;;;5057867;28;20044;-34
2024/02/13 01:04:44;;;;;;;1.85;0.20;;;23.00;55.60;;;;;;5060734;28;20041;-35
2024/02/13 01:07:11;;;;;;;5.68;1.02;;;23.00;55.70;;;;;;5047664;28;20030;-35
2024/02/13 01:09:37;;;;;;;8.33;0.70;;;23.00;55.60;;;;;;5044227;28;20045;-35
2024/02/13 01:12:06;;;;;;;3.25;0.52;;;23.00;55.70;;;;;;5047924;28;20021;-35
2024/02/13 01:14:32;;;;;;;5.30;0.50;;;23.00;55.70;;;;;;5049369;28;20029;-35
2024/02/13 01:16:58;;;;;;;6.35;0.50;;;23.00;55.90;;;;;;5047168;28;21172;-35
2024/02/13 01:19:25;;;;;;;4.22;0.32;;;23.00;56.00;;;;;;5062126;28;20017;-35
2024/02/13 01:21:51;;;;;;;4.05;0.40;;;23.00;56.00;;;;;;5059001;28;20038;-35
2024/02/13 01:24:17;;;;;;;2.17;0.40;;;23.00;56.00;;;;;;5059999;28;20054;-35
2024/02/13 01:26:44;;;;;;;4.38;0.40;;;23.00;56.40;;;;;;5058679;28;20037;-36
2024/02/13 01:29:11;;;;;;;1.55;0.20;;;22.90;56.40;;;;;;5062580;28;20079;-35
2024/02/13 01:31:38;;;;;;;1.33;0.30;;;22.90;56.30;;;;;;5055327;28;20030;-36
2024/02/13 01:34:07;;;;;;;3.85;0.50;;;22.90;56.30;;;;;;5059564;28;20021;-35
2024/02/13 01:36:35;;;;;;;2.88;0.35;;;22.90;56.30;;;;;;5058706;28;20028;-36
2024/02/13 01:39:03;;;;;;;1.88;0.30;;;22.90;56.30;;;;;;5056574;28;20116;-36
2024/02/13 01:41:29;;;;;;;0.85;0.30;;;22.90;56.30;;;;;;5064440;28;20064;-41
2024/02/13 01:43:57;;;;;;;1.40;0.30;;;22.90;56.40;;;;;;5061357;28;20041;-37
2024/02/13 01:46:26;;;;;;;1.50;0.30;;;22.90;56.40;;;;;;5060860;28;20092;-44
2024/02/13 01:48:56;;;;;;;2.08;0.40;;;22.90;56.50;;;;;;5056652;28;20037;-37
2024/02/13 01:51:26;;;;;;;0.43;0.20;;;22.90;56.40;;;;;;5063571;28;20029;-37
2024/02/13 01:53:53;;;;;;;0.82;0.22;;;22.90;56.40;;;;;;5055517;28;20049;-36
2024/02/13 01:56:20;;;;;;;1.17;0.30;;;22.90;56.40;;;;;;5062402;28;20043;-36
2024/02/13 01:58:46;;;;;;;0.98;0.30;;;22.90;56.30;;;;;;5059782;28;20068;-36
2024/02/13 02:01:12;;;;;;;2.13;0.30;;;22.90;56.30;;;;;;5063137;28;20021;-36
2024/02/13 02:03:39;;;;;;;3.03;0.40;;;22.90;56.60;;;;;;5055134;28;20093;-36
2024/02/13 02:06:06;;;;;;;2.65;0.30;;;22.90;56.50;;;;;;5061097;28;20045;-36
2024/02/13 02:08:32;;;;;;;1.38;0.30;;;22.80;56.50;;;;;;5058572;28;20096;-43
2024/02/13 02:10:58;;;;;;;2.33;0.30;;;22.90;56.50;;;;;;5054164;28;20778;-36
2024/02/13 02:13:26;;;;;;;4.75;0.22;;;22.90;56.60;;;;;;5056688;28;20025;-37
2024/02/13 02:15:52;;;;;;;2.42;0.30;;;22.90;56.40;;;;;;5055645;28;20040;-37
2024/02/13 02:18:18;;;;;;;0.97;0.30;;;22.80;56.20;;;;;;5055544;28;20109;-36
2024/02/13 02:20:45;;;;;;;0.85;0.17;;;22.80;56.30;;;;;;5057978;28;20278;-36
2024/02/13 02:23:11;;;;;;;3.38;0.30;;;22.80;56.40;;;;;;5060428;28;20029;-36
2024/02/13 02:25:38;;;;;;;1.30;0.20;;;22.80;56.50;;;;;;5052369;28;20025;-36
2024/02/13 02:28:04;;;;;;;0.85;0.25;;;22.80;56.60;;;;;;5057213;28;20095;-37
2024/02/13 02:30:30;;;;;;;3.63;0.40;;;22.80;56.80;;;;;;5047142;28;20041;-36
2024/02/13 02:32:56;;;;;;;0.50;0.22;;;22.70;57.00;;;;;;5047273;28;20043;-35
2024/02/13 02:35:22;;;;;;;1.80;0.30;;;22.70;56.90;;;;;;5046915;28;20033;-36
2024/02/13 02:37:50;;;;;;;33.35;2.33;;;22.70;56.60;;;;;;5052956;28;20022;-36
2024/02/13 02:40:18;;;;;;;18.83;1.58;;;22.70;56.90;;;;;;5056606;28;20033;-36
2024/02/13 02:42:49;;;;;;;17.55;1.65;;;22.70;56.90;;;;;;5052775;28;20036;-36
2024/02/13 02:45:15;;;;;;;10.68;1.30;;;22.70;56.70;;;;;;5055145;28;20033;-36
2024/02/13 02:47:42;;;;;;;25.02;1.70;;;22.70;56.60;;;;;;5054781;28;20027;-36
2024/02/13 02:50:12;;;;;;;15.75;1.02;;;22.70;56.70;;;;;;5059836;28;20040;-36
2024/02/13 02:52:38;;;;;;;6.63;0.77;;;22.70;56.50;;;;;;5052401;28;20026;-37
2024/02/13 02:55:07;;;;;;;4.83;0.40;;;22.70;56.50;;;;;;5055140;28;20735;-36
2024/02/13 02:57:34;;;;;;;3.22;0.52;;;22.70;56.40;;;;;;5059775;28;20025;-35
2024/02/13 03:00:08;;;;;;;4.20;0.40;;;22.70;56.30;;;;;;5050772;28;20041;-35
2024/02/13 03:02:35;;;;;;;2.22;0.47;;;22.70;56.20;;;;;;5056025;28;20119;-36
2024/02/13 03:05:03;;;;;;;1.88;0.45;;;22.70;56.20;;;;;;5062655;28;20064;-36
2024/02/13 03:07:33;;;;;;;0.63;0.40;;;22.70;56.20;;;;;;5066735;28;20037;-35
2024/02/13 03:10:00;;;;;;;2.47;0.50;;;22.60;56.10;;;;;;5063452;28;20033;-36
2024/02/13 03:12:26;;;;;;;0.93;0.30;;;22.60;56.10;;;;;;5048719;28;20067;-35
2024/02/13 03:14:55;;;;;;;0.80;0.30;;;22.60;56.30;;;;;;5064332;28;20100;-35
2024/02/13 03:17:22;;;;;;;3.00;0.50;;;22.60;56.40;;;;;;5066699;28;20434;-36
2024/02/13 03:19:48;;;;;;;3.08;0.40;;;22.60;56.20;;;;;;5064699;28;20046;-35
2024/02/13 03:22:19;;;;;;;1.33;0.40;;;22.60;56.10;;;;;;5066254;28;20029;-35
2024/02/13 03:24:46;;;;;;;1.33;0.50;;;22.50;55.90;;;;;;5063443;28;20928;-36
2024/02/13 03:27:12;;;;;;;1.15;0.40;;;22.50;55.90;;;;;;5067831;28;20037;-36
2024/02/13 03:29:38;;;;;;;1.30;0.60;;;22.50;55.90;;;;;;5063152;28;20405;-36
2024/02/13 03:32:04;;;;;;;1.88;0.40;;;22.50;56.10;;;;;;5063979;28;20020;-35
2024/02/13 03:34:31;;;;;;;4.33;0.40;;;22.50;56.10;;;;;;5063120;28;20028;-36
2024/02/13 03:36:58;;;;;;;1.13;0.50;;;22.40;56.10;;;;;;5073760;28;20037;-36
2024/02/13 03:39:24;;;;;;;4.00;0.50;;;22.40;56.10;;;;;;5073071;28;20068;-37
2024/02/13 03:41:51;;;;;;;2.13;0.63;;;22.40;56.00;;;;;;5066769;28;20017;-36
2024/02/13 03:44:17;;;;;;;0.52;0.38;;;22.40;55.80;;;;;;5076521;28;20277;-36
2024/02/13 03:46:43;;;;;;;0.30;0.30;;;22.40;55.70;;;;;;5077331;28;20017;-37
2024/02/13 03:49:09;;;;;;;0.45;0.32;;;22.40;55.70;;;;;;5080836;28;20054;-37
2024/02/13 03:51:38;;;;;;;0.85;0.45;;;22.40;55.60;;;;;;5075133;28;20034;-37
2024/02/13 03:54:08;;;;;;;2.17;0.65;;;22.40;55.60;;;;;;5078721;28;20028;-41
2024/02/13 03:56:37;;;;;;;1.15;0.50;;;22.40;55.70;;;;;;5074913;28;20457;-39
2024/02/13 03:59:08;;;;;;;2.15;0.40;;;22.50;55.70;;;;;;5076559;28;20017;-39
2024/02/13 04:01:36;;;;;;;4.50;0.60;;;22.50;55.60;;;;;;5068809;28;20029;-37
2024/02/13 04:04:04;;;;;;;3.05;0.50;;;22.50;55.40;;;;;;5071632;28;20036;-37
2024/02/13 04:06:33;;;;;;;1.80;0.65;;;22.50;55.50;;;;;;5068747;28;20044;-37
2024/02/13 04:09:03;;;;;;;1.10;0.50;;;22.40;55.50;;;;;;5077099;28;20044;-37
2024/02/13 04:11:30;;;;;;;3.00;0.50;;;22.40;55.60;;;;;;5073028;28;20032;-37
2024/02/13 04:13:57;;;;;;;0.43;0.40;;;22.40;55.80;;;;;;5074775;28;20040;-38
2024/02/13 04:16:24;;;;;;;0.93;0.40;;;22.40;55.70;;;;;;5078899;28;20029;-37
2024/02/13 04:18:50;;;;;;;1.63;0.38;;;22.40;55.50;;;;;;5078257;28;20405;-37
2024/02/13 04:21:17;;;;;;;0.50;0.28;;;22.40;55.40;;;;;;5068892;28;20037;-37
2024/02/13 04:23:52;;;;;;;0.43;0.30;;;22.40;55.30;;;;;;5082326;28;20548;-40
2024/02/13 04:26:18;;;;;;;0.65;0.40;;;22.30;55.30;;;;;;5060988;28;20056;-37
2024/02/13 04:28:44;;;;;;;0.82;0.55;;;22.30;55.30;;;;;;5079798;28;20033;-37
2024/02/13 04:31:11;;;;;;;0.65;0.30;;;22.30;55.50;;;;;;5070806;28;20071;-37
2024/02/13 04:33:37;;;;;;;0.67;0.50;;;22.30;55.40;;;;;;5072520;28;20032;-37
2024/02/13 04:36:04;;;;;;;1.30;0.52;;;22.30;55.20;;;;;;5062339;28;20024;-37
2024/02/13 04:38:33;;;;;;;1.30;0.43;;;22.30;55.20;;;;;;5078311;28;20079;-37
2024/02/13 04:40:59;;;;;;;0.52;0.40;;;22.30;55.10;;;;;;5056297;28;20290;-38
2024/02/13 04:43:46;;;;;;;0.40;0.32;;;22.20;55.10;;;;;;5077003;28;20031;-36
2024/02/13 04:46:12;;;;;;;0.70;0.40;;;22.20;55.10;;;;;;5016696;28;20117;-36
2024/02/13 04:48:38;;;;;;;1.05;0.40;;;22.20;55.10;;;;;;5011894;28;20605;-36
2024/02/13 04:51:08;;;;;;;0.60;0.40;;;22.20;55.10;;;;;;5015577;28;20065;-36
2024/02/13 04:53:35;;;;;;;0.38;0.30;;;22.20;55.00;;;;;;5018571;28;20038;-36
2024/02/13 04:56:01;;;;;;;0.25;0.20;;;22.20;54.80;;;;;;5013612;28;20100;-36
2024/02/13 04:58:33;;;;;;;0.30;0.30;;;22.20;54.80;;;;;;5016415;28;20036;-37
2024/02/13 05:01:02;;;;;;;0.63;0.40;;;22.20;54.80;;;;;;5017879;28;20081;-37
2024/02/13 05:08:58;;;;;;;0.35;0.35;;;22.10;54.80;;;;;;5010465;28;20101;-37
2024/02/13 05:11:25;;;;;;;0.43;0.30;;;22.10;54.70;;;;;;5018647;28;20048;-37
2024/02/13 05:13:52;;;;;;;0.85;0.30;;;22.10;54.50;;;;;;5013816;28;20065;-37
2024/02/13 05:16:18;;;;;;;0.82;0.30;;;22.10;54.50;;;;;;5015871;28;20596;-37
2024/02/13 05:18:48;;;;;;;0.30;0.30;;;22.10;54.50;;;;;;5014443;28;20041;-37
2024/02/13 05:21:15;;;;;;;0.30;0.20;;;22.10;54.50;;;;;;5014586;28;20138;-36
2024/02/13 05:23:42;;;;;;;0.77;0.30;;;22.00;54.50;;;;;;5053383;28;20033;-37
2024/02/13 05:26:08;;;;;;;0.40;0.30;;;22.00;54.50;;;;;;5078062;28;20032;-37
2024/02/13 05:28:37;;;;;;;0.30;0.30;;;22.00;54.40;;;;;;5054607;28;20036;-38
2024/02/13 05:31:07;;;;;;;0.30;0.20;;;22.00;54.30;;;;;;5081178;28;20043;-38
2024/02/13 05:33:34;;;;;;;0.40;0.20;;;22.00;54.30;;;;;;5076636;28;20056;-37
2024/02/13 05:36:04;;;;;;;0.30;0.20;;;22.00;54.20;;;;;;5078836;28;20029;-37
2024/02/13 05:38:35;;;;;;;0.85;0.20;;;22.00;54.20;;;;;;5072770;28;20145;-37
2024/02/13 05:41:01;;;;;;;0.22;0.22;;;22.00;54.30;;;;;;5078817;28;20056;-37
2024/02/13 05:43:27;;;;;;;0.20;0.20;;;21.90;54.30;;;;;;5076810;28;20021;-37
2024/02/13 05:45:55;;;;;;;3.10;0.20;;;22.00;54.30;;;;;;5075393;28;20032;-36
2024/02/13 05:48:22;;;;;;;2.08;0.30;;;22.10;54.20;;;;;;5069704;28;20029;-37
2024/02/13 05:50:50;;;;;;;0.40;0.40;;;22.00;54.00;;;;;;5075520;28;20079;-37
2024/02/13 05:53:17;;;;;;;2.05;0.20;;;22.00;54.00;;;;;;5080911;28;20020;-37
2024/02/13 05:55:43;;;;;;;0.52;0.20;;;22.00;54.10;;;;;;5080069;28;20032;-38
2024/02/13 05:58:09;;;;;;;0.25;0.20;;;21.90;54.10;;;;;;5074710;28;20029;-37
2024/02/13 06:00:35;;;;;;;1.13;0.40;;;21.90;54.10;;;;;;5071770;28;20021;-38
2024/02/13 06:03:05;;;;;;;0.30;0.20;;;21.90;54.10;;;;;;5075784;28;20815;-37
2024/02/13 06:05:31;;;;;;;0.40;0.25;;;21.90;54.00;;;;;;5076528;28;20170;-37
2024/02/13 06:07:57;;;;;;;0.20;0.10;;;21.90;53.90;;;;;;5077365;28;20033;-37
2024/02/13 06:10:24;;;;;;;0.25;0.20;;;21.90;53.90;;;;;;5073868;28;20048;-37
2024/02/13 06:12:51;;;;;;;0.30;0.20;;;21.90;53.90;;;;;;5078935;28;20078;-39
2024/02/13 06:15:17;;;;;;;1.50;0.20;;;21.90;53.90;;;;;;5077517;28;20044;-38
2024/02/13 06:17:46;;;;;;;2.15;0.30;;;21.80;53.90;;;;;;5079618;28;20098;-36
2024/02/13 06:20:12;;;;;;;0.50;0.20;;;21.80;54.00;;;;;;5070562;28;20035;-36
2024/02/13 06:22:39;;;;;;;0.88;0.17;;;21.90;53.90;;;;;;5077780;28;20028;-36
2024/02/13 06:25:06;;;;;;;0.20;0.20;;;21.90;53.90;;;;;;5072665;28;20096;-36
2024/02/13 06:27:32;;;;;;;0.20;0.17;;;21.90;53.90;;;;;;5060682;28;20155;-37
2024/02/13 06:29:59;;;;;;;0.35;0.20;;;21.80;53.80;;;;;;5076727;28;20071;-38
2024/02/13 06:32:25;;;;;;;0.50;0.30;;;21.80;53.80;;;;;;5080680;28;20017;-37
2024/02/13 06:34:55;;;;;;;1.05;0.30;;;21.80;53.90;;;;;;5076608;28;20488;-37
2024/02/13 06:37:21;;;;;;;0.50;0.20;;;21.80;53.90;;;;;;5080766;28;20035;-37
2024/02/13 06:39:50;;;;;;;0.30;0.20;;;21.80;53.70;;;;;;5070469;28;20029;-37
2024/02/13 06:42:17;;;;;;;0.10;0.10;;;21.80;53.70;;;;;;5067559;28;20041;-37
2024/02/13 06:44:46;;;;;;;0.20;0.20;;;21.80;53.60;;;;;;5065794;28;20051;-37
2024/02/13 06:47:12;;;;;;;0.30;0.20;;;21.80;53.60;;;;;;5071652;28;20033;-37
2024/02/13 06:49:38;;;;;;;0.30;0.20;;;21.70;53.50;;;;;;5069031;28;20040;-37
2024/02/13 06:52:05;;;;;;;0.20;0.20;;;21.70;53.70;;;;;;5074029;28;20107;-36
2024/02/13 06:54:32;;;;;;;0.50;0.22;;;21.70;53.70;;;;;;5068723;28;20041;-37
2024/02/13 06:56:58;;;;;;;0.10;0.10;;;21.70;54.10;;;;;;5069828;28;20075;-37
2024/02/13 06:59:24;;;;;;;0.10;0.10;;;21.70;53.50;;;;;;5069392;28;20037;-37
2024/02/13 07:01:50;;;;;;;0.30;0.20;;;21.70;53.40;;;;;;5066334;28;20036;-37
2024/02/13 07:04:16;;;;;;;0.17;0.17;;;21.70;53.40;;;;;;5068836;28;20020;-37
2024/02/13 07:06:43;;;;;;;0.32;0.20;;;21.60;53.40;;;;;;5073648;28;20044;-43
2024/02/13 07:09:10;;;;;;;0.10;0.10;;;21.60;53.60;;;;;;5072110;28;20045;-38
2024/02/13 07:11:36;;;;;;;0.15;0.15;;;21.60;53.50;;;;;;5069925;28;20037;-38
2024/02/13 07:14:02;;;;;;;0.10;0.10;;;21.60;53.40;;;;;;5070707;28;20500;-37
2024/02/13 07:16:28;;;;;;;0.10;0.10;;;21.70;53.40;;;;;;5069401;28;20143;-37
2024/02/13 07:18:55;;;;;;;0.10;0.10;;;21.60;53.30;;;;;;5071207;28;20025;-37
2024/02/13 07:21:21;;;;;;;0.10;0.10;;;21.60;53.40;;;;;;5069871;28;20039;-37
2024/02/13 07:23:48;;;;;;;0.20;0.13;;;21.60;53.40;;;;;;5071543;28;20571;-37
2024/02/13 07:26:14;;;;;;;0.20;0.20;;;21.60;53.60;;;;;;5071844;28;20036;-37
2024/02/13 07:28:41;;;;;;;0.10;0.10;;;21.60;53.50;;;;;;5071873;28;20041;-37
2024/02/13 07:31:11;;;;;;;0.82;0.10;;;21.60;53.30;;;;;;5070545;28;20525;-37
2024/02/13 07:33:37;;;;;;;1.13;0.10;;;21.60;53.30;;;;;;5067284;28;20037;-37
2024/02/13 07:36:05;;;;;;;0.22;0.10;;;21.60;53.20;;;;;;5070943;28;20070;-37
2024/02/13 07:38:32;;;;;;;0.17;0.10;;;21.50;53.20;;;;;;5071393;28;20028;-38
2024/02/13 07:40:58;;;;;;;0.47;0.10;;;21.50;53.20;;;;;;5068545;28;20041;-37
2024/02/13 07:43:25;;;;;;;0.10;0.10;;;21.50;53.40;;;;;;5070270;28;20032;-37
2024/02/13 07:45:51;;;;;;;0.10;0.10;;;21.50;53.20;;;;;;5068381;28;20033;-36
2024/02/13 07:48:17;;;;;;;0.10;0.10;;;21.60;53.20;;;;;;5070844;28;20066;-37
2024/02/13 07:50:43;;;;;;;0.10;0.10;;;21.60;53.10;;;;;;5065718;28;20032;-36
2024/02/13 07:53:10;;;;;;;0.10;0.10;;;21.50;53.00;;;;;;5070262;28;20024;-37
2024/02/13 07:55:37;;;;;;;0.20;0.10;;;21.50;53.00;;;;;;5069995;28;20536;-37
2024/02/13 07:58:03;;;;;;;0.00;0.00;;;21.50;53.20;;;;;;5070328;28;20040;-38
2024/02/13 08:00:31;;;;;;;0.10;0.10;;;21.40;53.20;;;;;;5065194;28;20028;-36
2024/02/13 08:02:59;;;;;;;0.10;0.10;;;21.40;53.00;;;;;;5065520;28;20040;-37
2024/02/13 08:05:25;;;;;;;0.17;0.10;;;21.50;53.00;;;;;;5059588;28;20049;-37
2024/02/13 08:07:52;;;;;;;0.00;0.00;;;21.50;52.90;;;;;;5047248;28;20049;-36
2024/02/13 08:10:18;;;;;;;0.10;0.10;;;21.40;52.90;;;;;;5043448;28;20037;-37
2024/02/13 08:12:45;;;;;;;0.10;0.10;;;21.40;52.90;;;;;;5045507;28;20025;-37
2024/02/13 08:15:11;;;;;;;0.10;0.10;;;21.40;53.10;;;;;;5046592;28;20037;-37
2024/02/13 08:17:37;;;;;;;0.30;0.05;;;21.40;53.00;;;;;;5048194;28;20029;-37
2024/02/13 08:20:04;;;;;;;2.45;0.20;;;21.40;52.90;;;;;;5045650;28;20021;-36
2024/02/13 08:22:30;;;;;;;6.00;0.17;;;21.40;52.70;;;;;;5047402;28;20033;-37
2024/02/13 08:25:00;;;;;;;6.32;0.50;;;21.40;52.80;;;;;;5050126;28;20034;-37
2024/02/13 08:27:27;;;;;;;3.47;0.17;;;21.40;52.80;;;;;;5043421;28;20035;-36
2024/02/13 08:29:53;;;;;;;1.00;0.10;;;21.40;52.90;;;;;;5046468;28;20063;-36
2024/02/13 08:32:19;;;;;;;0.10;0.10;;;21.30;52.90;;;;;;5048540;28;20034;-36
2024/02/13 08:34:46;;;;;;;0.00;0.00;;;21.30;53.30;;;;;;5047096;28;20053;-36
2024/02/13 08:37:13;;;;;;;0.00;0.00;;;21.40;52.70;;;;;;5048546;28;20021;-37
2024/02/13 08:39:39;;;;;;;0.45;0.00;;;21.30;52.60;;;;;;5044778;28;20490;-36
2024/02/13 08:42:06;;;;;;;2.17;0.17;;;21.30;52.50;;;;;;5047349;28;20067;-36
2024/02/13 08:44:34;;;;;;;0.00;0.00;;;21.30;52.70;;;;;;5052100;28;20033;-42
2024/02/13 08:47:01;;;;;;;0.08;0.08;;;21.30;52.60;;;;;;5059701;28;20029;-36
2024/02/13 08:49:27;;;;;;;0.10;0.00;;;21.20;52.90;;;;;;5055089;28;20029;-36
2024/02/13 08:51:53;;;;;;;0.10;0.10;;;21.30;52.80;;;;;;5060937;28;20028;-36
2024/02/13 08:54:19;;;;;;;1.30;0.00;;;21.30;52.70;;;;;;5055033;28;20049;-36
2024/02/13 08:56:45;;;;;;;0.10;0.10;;;21.30;52.70;;;;;;5049621;28;20042;-36
2024/02/13 08:59:11;;;;;;;0.20;0.10;;;21.20;52.40;;;;;;5054382;28;20060;-36
2024/02/13 09:01:37;;;;;;;0.20;0.10;;;21.20;52.50;;;;;;5057839;28;20037;-35
2024/02/13 09:04:03;;;;;;;0.00;0.00;;;21.20;52.60;;;;;;5055583;28;20049;-36
2024/02/13 09:06:31;;;;;;;0.10;0.10;;;21.20;52.70;;;;;;5071227;28;20048;-36
2024/02/13 09:08:57;;;;;;;0.55;0.00;;;21.20;52.50;;;;;;5079792;28;20112;-37
2024/02/13 09:11:26;;;;;;;0.10;0.10;;;21.20;52.50;;;;;;5086855;28;20051;-36
2024/02/13 09:13:53;;;;;;;0.20;0.00;;;21.20;52.50;;;;;;5085645;28;20020;-36
2024/02/13 09:16:19;;;;;;;0.55;0.10;;;21.20;52.40;;;;;;5083107;28;20032;-36
2024/02/13 09:18:47;;;;;;;0.00;0.00;;;21.10;52.40;;;;;;5073435;28;20028;-36
2024/02/13 09:21:12;;;;;;;;;;;21.10;52.50;;;;;;5073620;28;20128;-37
2024/02/13 09:23:38;;;;;;;0.10;0.10;;;21.10;52.50;;;;;;5076176;28;19944;-37
2024/02/13 09:26:05;;;;;;;0.10;0.10;;;21.10;52.40;;;;;;5076032;28;20032;-37
2024/02/13 09:28:31;;;;;;;0.00;0.00;;;21.10;52.40;;;;;;5083625;28;20127;-36
2024/02/13 09:30:58;;;;;;;0.10;0.10;;;21.10;52.30;;;;;;5078160;28;20033;-36
2024/02/13 09:33:24;;;;;;;0.00;0.00;;;21.10;52.30;;;;;;5076978;28;20028;-37
2024/02/13 09:35:50;;;;;;;1.75;0.00;;;21.10;52.30;;;;;;5079031;28;20036;-37
2024/02/13 09:38:17;;;;;;;0.10;0.10;;;21.00;52.60;;;;;;5080443;28;20032;-38
2024/02/13 09:40:43;;;;;;;0.10;0.10;;;21.00;52.80;;;;;;5077823;28;20025;-37
2024/02/13 09:43:10;;;;;;;0.10;0.10;;;21.10;52.70;;;;;;5082327;28;20029;-37
2024/02/13 09:45:43;;;;;;;0.00;0.00;;;21.10;52.60;;;;;;5079997;28;20021;-37
2024/02/13 09:48:19;;;;;;;0.00;0.00;;;21.10;52.40;;;;;;5078021;28;20036;-36
2024/02/13 09:50:45;;;;;;;0.47;0.00;;;21.00;52.40;;;;;;5063015;28;20064;-37
2024/02/13 09:53:26;;;;;;;0.30;0.10;;;21.00;52.40;;;;;;5080050;28;20028;-37
2024/02/13 09:55:59;;;;;;;0.63;0.10;;;21.00;52.50;;;;;;5081370;28;20107;-36
2024/02/13 09:58:26;;;;;;;1.38;0.10;;;21.00;52.50;;;;;;5079413;28;20092;-36
2024/02/13 10:00:52;;;;;;;0.57;0.00;;;21.10;52.40;;;;;;5081354;28;20032;-36
2024/02/13 10:03:19;;;;;;;0.00;0.00;;;21.00;52.40;;;;;;5072417;28;20071;-36
2024/02/13 10:05:45;;;;;;;0.17;0.10;;;21.00;52.30;;;;;;5077329;28;20040;-35
2024/02/13 10:08:11;;;;;;;0.17;0.00;;;21.00;52.30;;;;;;5078605;28;20097;-35
2024/02/13 10:10:38;;;;;;;0.20;0.00;;;21.00;52.40;;;;;;5078398;28;20043;-36
2024/02/13 10:13:05;;;;;;;0.73;0.10;;;21.00;52.40;;;;;;5071792;28;20027;-36
2024/02/13 10:15:40;;;;;;;0.22;0.00;;;21.00;52.20;;;;;;5077949;28;20044;-36
2024/02/13 10:18:08;;;;;;;0.00;0.00;;;21.00;52.10;;;;;;5081968;28;20023;-35
2024/02/13 10:20:36;;;;;;;0.45;0.05;;;21.00;52.10;;;;;;5076689;28;20092;-36
2024/02/13 10:23:02;;;;;;;0.05;0.05;;;20.90;52.00;;;;;;5073969;28;20048;-37
2024/02/13 10:25:31;;;;;;;0.00;0.00;;;20.90;52.00;;;;;;5075313;28;20105;-37
2024/02/13 10:28:06;;;;;;;0.20;0.10;;;20.90;52.20;;;;;;5074185;28;20029;-37
2024/02/13 10:30:33;;;;;;;0.00;0.00;;;20.90;52.10;;;;;;5073643;28;20064;-37
2024/02/13 10:33:00;;;;;;;0.00;0.00;;;20.90;52.00;;;;;;5075208;28;20040;-37
2024/02/13 10:35:29;;;;;;;0.10;0.00;;;20.90;52.00;;;;;;5078875;28;20033;-37
2024/02/13 10:37:56;;;;;;;0.00;0.00;;;20.90;52.00;;;;;;5081284;28;20036;-37
2024/02/13 10:40:26;;;;;;;0.00;0.00;;;20.90;51.80;;;;;;5077277;28;20032;-36
2024/02/13 10:42:56;;;;;;;1.65;0.17;;;20.90;51.90;;;;;;5073297;28;20121;-36
2024/02/13 10:45:32;;;;;;;0.10;0.10;;;20.80;52.00;;;;;;5078262;28;20035;-36
2024/02/13 10:48:16;;;;;;;0.20;0.00;;;20.90;51.90;;;;;;5077144;28;20035;-36
2024/02/13 10:50:43;;;;;;;0.00;0.00;;;20.90;51.90;;;;;;5059461;28;20033;-38
2024/02/13 10:53:11;;;;;;;0.00;0.00;;;20.90;51.90;;;;;;5077742;28;20038;-36
2024/02/13 10:55:38;;;;;;;0.10;0.10;;;20.80;51.70;;;;;;5074520;28;20032;-36
2024/02/13 10:58:04;;;;;;;0.10;0.10;;;20.80;51.80;;;;;;5062278;28;20020;-36
2024/02/13 11:00:30;;;;;;;0.28;0.10;;;20.80;52.10;;;;;;5076512;28;20393;-36
2024/02/13 11:02:56;;;;;;;0.10;0.10;;;20.80;52.20;;;;;;5075904;28;20056;-36
2024/02/13 11:05:25;;;;;;;0.10;0.10;;;20.80;52.00;;;;;;5071656;28;20047;-36
2024/02/13 11:07:52;;;;;;;0.10;0.10;;;20.80;52.00;;;;;;5058233;28;20040;-36
2024/02/13 11:10:19;;;;;;;0.10;0.10;;;20.80;51.90;;;;;;5062973;28;20032;-37
2024/02/13 11:12:45;;;;;;;0.00;0.00;;;20.80;51.90;;;;;;5059881;28;20025;-36
2024/02/13 11:15:17;;;;;;;0.20;0.10;;;20.80;52.00;;;;;;5056661;28;20405;-36
2024/02/13 11:17:47;;;;;;;0.10;0.10;;;20.80;52.00;;;;;;5056453;28;20028;-36
2024/02/13 11:20:14;;;;;;;0.10;0.10;;;20.80;51.90;;;;;;5055127;28;20071;-36
2024/02/13 11:22:50;;;;;;;0.00;0.00;;;20.80;51.80;;;;;;5056394;28;20397;-37
2024/02/13 11:25:17;;;;;;;0.08;0.08;;;20.80;51.80;;;;;;5040910;28;20032;-36
2024/02/13 11:27:44;;;;;;;0.10;0.10;;;20.80;51.60;;;;;;5050769;28;20051;-37
2024/02/13 11:30:20;;;;;;;0.10;0.10;;;20.80;51.70;;;;;;5051276;28;20040;-37
2024/02/13 11:32:46;;;;;;;0.17;0.10;;;20.70;51.80;;;;;;5047598;28;20026;-37
2024/02/13 11:35:17;;;;;;;0.25;0.10;;;20.70;51.70;;;;;;5032576;28;20025;-37
2024/02/13 11:37:43;;;;;;;0.17;0.17;;;20.80;51.70;;;;;;5056892;28;20063;-37
2024/02/13 11:40:18;;;;;;;0.20;0.10;;;20.80;51.70;;;;;;5059707;28;20064;-36
2024/02/13 11:42:44;;;;;;;0.10;0.10;;;20.80;51.60;;;;;;5048886;28;20049;-37
2024/02/13 11:45:20;;;;;;;0.10;0.10;;;20.70;51.60;;;;;;5057454;28;20116;-36
2024/02/13 11:47:46;;;;;;;0.20;0.20;;;20.70;51.70;;;;;;5057124;28;20063;-35
2024/02/13 11:50:12;;;;;;;0.40;0.20;;;20.70;51.70;;;;;;5057143;28;20037;-35
2024/02/13 11:52:39;;;;;;;0.10;0.10;;;20.70;51.60;;;;;;5052750;28;20029;-36
2024/02/13 11:55:05;;;;;;;0.47;0.10;;;20.70;51.60;;;;;;5050319;28;20029;-36
2024/02/13 11:57:31;;;;;;;0.20;0.20;;;20.70;51.60;;;;;;5044546;28;20269;-35
2024/02/13 12:00:12;;;;;;;0.75;0.22;;;20.70;51.60;;;;;;5057702;28;20036;-36
2024/02/13 12:02:39;;;;;;;0.38;0.20;;;20.70;51.70;;;;;;5059030;28;20029;-36
2024/02/13 12:05:12;;;;;;;0.20;0.17;;;20.70;51.70;;;;;;5065577;28;20048;-36
2024/02/13 12:07:38;;;;;;;1.42;0.20;;;20.70;51.60;;;;;;5064903;28;20063;-37
2024/02/13 12:10:06;;;;;;;0.30;0.20;;;20.70;51.60;;;;;;5074616;28;20041;-37
2024/02/13 12:12:33;;;;;;;0.38;0.30;;;20.70;51.70;;;;;;5059441;28;20020;-37
2024/02/13 12:15:03;;;;;;;0.30;0.15;;;20.70;51.50;;;;;;5055669;28;20032;-37
2024/02/13 12:17:32;;;;;;;1.17;0.20;;;20.70;51.60;;;;;;5074641;28;20468;-37
2024/02/13 12:19:59;;;;;;;2.20;0.30;;;20.60;51.60;;;;;;5062551;28;20032;-37
2024/02/13 12:22:28;;;;;;;0.30;0.30;;;20.60;51.60;;;;;;5074971;28;20031;-37
2024/02/13 12:24:56;;;;;;;0.20;0.17;;;20.70;51.50;;;;;;5071626;28;20056;-37
2024/02/13 12:27:24;;;;;;;0.85;0.40;;;20.70;51.50;;;;;;5076870;28;20025;-36
2024/02/13 12:29:50;;;;;;;0.50;0.20;;;20.70;51.60;;;;;;5077256;28;20036;-35
2024/02/13 12:32:16;;;;;;;4.47;0.25;;;20.70;51.60;;;;;;5075071;28;20063;-36
2024/02/13 12:34:47;;;;;;;0.95;0.20;;;20.70;51.70;;;;;;5070012;28;20040;-36
2024/02/13 12:37:20;;;;;;;0.40;0.30;;;20.70;51.60;;;;;;5067882;28;20029;-37
2024/02/13 12:39:49;;;;;;;0.30;0.30;;;20.70;51.50;;;;;;5073911;28;20119;-36
2024/02/13 12:42:17;;;;;;;0.88;0.30;;;20.70;51.60;;;;;;5073924;28;20032;-37
2024/02/13 12:44:44;;;;;;;;;;;20.70;51.50;;;;;;5077522;28;20040;-37
2024/02/13 12:47:29;;;;;;;0.20;0.20;;;20.60;51.40;;;;;;4994001;28;19921;-36
2024/02/13 12:49:55;;;;;;;0.30;0.30;;;20.60;51.60;;;;;;4994123;28;20093;-36
2024/02/13 12:52:22;;;;;;;0.68;0.30;;;20.60;51.60;;;;;;4986991;28;20531;-36
2024/02/13 12:54:49;;;;;;;0.87;0.23;;;20.60;51.50;;;;;;4989901;28;20838;-35